Archival Weather

Heathrow

Heathrow, United Kingdom (EGLL)

Report from: Tuesday, July 19, 2022 12:50 PM BST
Current time: Monday, September 26, 2022 4:05 AM BST

Current weather
Weather history
Weather forecast

Temperature39.0°C (102.2°F)
Heat index37.1°C (98.9°F)
Dew point9.0°C (48.2°F)
Winds 12 kts (6.2 m/s, 13.8 mph) Vrb
Wind gusts 23 kts (11.8 m/s, 26.5 mph)
Winds variableWinds variable from East-Southeast (110°) to South-Southwest (210°)
Visibility6.2 mi. (10 km)
Clouds Sky clear
Altimeter29.83 in.Hg (1010 mB)
Relative humidity16 %
Density altitude2,976 ft. (907 m)
Remarks Fully automated report
No clouds detected
Flight conditions Visual Meteorological Conditions
Raw dataEGLL 191150Z AUTO 16012G23KT 110V210 9999 NCD 39/09 Q1010
An error has occurred. This application may no longer respond until reloaded. Reload 🗙